Broomfield, CO (80038)

6:18 PM MDT on August 28, 2016 (GMT -0600)
Broomfield Heights | | Change Station

Elev 5404 ft 39.93 °N, 105.08 °W | Updated 3 minutes ago

Mostly Cloudy
Mostly Cloudy
73.7 °F
Feels Like 77 °F
N
2.0
Wind Variable Wind from NNW
Gusts 4.0 mph

Today
High -- | Low -- °F
--% Chance of Precip.
Yesterday
High -- | Low -- °F
Precip. -- in
Pressure 30.19 in
Visibility 30.0 miles
Clouds Mostly Cloudy 12000 ft
Mostly Cloudy 20000 ft
Heat Index 77 °F
Dew Point 46 °F
Humidity 38%
Rainfall 0.00 in
Snow Depth Not available.
6:24 AM 7:37 PM
Waning Crescent, 12% visible
METAR KBJC 282345Z 27010KT 30SM BKN120 BKN200 22/07 A3019 RMK TSE35
Pressure 30.19 in
Visibility 30.0 miles
Clouds Mostly Cloudy 12000 ft
Mostly Cloudy 20000 ft
Heat Index 77 °F
Dew Point 46 °F
Humidity 38%
Rainfall 0.00 in
Snow Depth Not available.
6:24 AM 7:37 PM
Waning Crescent, 12% visible
METAR KBJC 282345Z 27010KT 30SM BKN120 BKN200 22/07 A3019 RMK TSE35

10-Day Weather Forecast

Almanac

Astronomy

Aug. 28, 2016 Rise Set
Actual Time
Civil Twilight
Nautical Twilight
Astronomical Twilight
Moon
Length of Visible Light
Length of Day
Tomorrow will be .
, % of the Moon is Illuminated

Today's Extremes

State Highs State Lows

Community

WunderPhotos

Upload Photos

1,935,728 photos uploaded!

WunderBlog® & News

Nearby

Air Quality

  Air Quality AQ Index Pollutant
Not available.

Snow Depth

Station Depth Elevation

Earthquake Activity

City Distance Mag. Time & Date
Minimum magnitude displayed is 2.5.

Coastal Water Temperatures

Place Temperature

Stations

Nearby Weather Stations

Station Location Temp. Windchill Dew Point Humidity Wind Precip. Elev Updated Type
                   

Watches & Warnings

There are currently no watches in effect.